ENGK

Gullknapp Flpl Airport

Norway
METAR ENGK 181320Z 28005KT CAVOK 02/M08 Q1010
Observed Flight Rules
Jan-18 @ 13:20 UTC (30 minutes ago) Visual Flight Rules
Wind Visibility Clouds
280° at 5 knots 10,000+ meters
  • Clear skies
Temperatures Readings
Current 2°C / 36°F
Dewpoint -8°C / 18°F
Humidity 48%
Altimeter 29.82" Hg
Pressure 1009.92 hPa
Elevation 119
METAR ENGK 181320Z 28005KT CAVOK 02/M08 Q1010
Observed Flight Rules
Jan-18 @ 13:20 UTC
(30 minutes ago)
VFR
Wind Visibility
280° at 5 knots 10,000+ meters
Clouds
  • Clear skies
Temperature Dewpoint
2°C / 36°F -8°C / 18°F
Humidity Altimeter Pressure
48% 29.82" Hg 1009.92 hPa